Eastover, North Carolina
Current Conditions -  °F | °C
As of 4:04 PM on Tuesday 25 Nov 2014 (Local Time) from KFAY Reporting Station
Haze Haze  
Wind Chill: 63°   Ceiling: 1700
Heat Index: 63°   Visibility: 3mi
Dew Point: 61°   Wind: 0mph
Humidity: 93%   Direction: NA
Pressure: 30.04"   Gusts: NA
Location:  35.072°N, 78.8095°W
Report Text: KFAY 252104Z AUTO 00000KT 3SM BR FEW004 BKN017 OVC046 17/16 A3004 RMK AO2 T01720161
Loading
Personal Weather Stations






























Interactive Weather Map New forecast layout! Learn more

10-Day Weather Forecast

Advertisements
Track Severe Weather on mobile